createdAt,value
2023-01-19T00:00:47.946Z,94297.38
2023-01-19T00:05:50.029Z,94280.53
2023-01-19T00:10:52.399Z,94268.47
2023-01-19T00:15:54.615Z,94282.16
2023-01-19T00:20:57.021Z,94278.75
2023-01-19T00:25:59.279Z,94271.59
2023-01-19T00:31:01.271Z,94247.19
2023-01-19T00:36:03.859Z,94261.13
2023-01-19T00:41:06.296Z,94280.84
2023-01-19T00:46:08.607Z,94283.72
2023-01-19T00:51:10.847Z,94269.81
2023-01-19T00:56:12.859Z,94282.91
2023-01-19T01:01:14.889Z,94301.59
2023-01-19T01:06:17.024Z,94264.31
2023-01-19T01:11:19.211Z,94311.16
2023-01-19T01:16:21.190Z,94318.03
2023-01-19T01:21:23.797Z,94326.78
2023-01-19T01:26:27.122Z,94324.25
2023-01-19T01:31:30.013Z,94342.41
2023-01-19T01:36:33.649Z,94376.09
2023-01-19T01:41:35.890Z,94340.59
2023-01-19T01:46:38.198Z,94353.47
2023-01-19T01:51:50.211Z,94336.69
2023-01-19T01:56:54.186Z,94338.56
2023-01-19T02:02:17.033Z,94348.81
2023-01-19T02:08:01.369Z,94349.34
2023-01-19T02:13:22.047Z,94337.28
2023-01-19T02:18:27.588Z,94328.56
2023-01-19T02:23:50.601Z,94304.06
2023-01-19T02:29:01.073Z,94340.34
2023-01-19T02:34:04.643Z,94311.66
2023-01-19T02:39:07.500Z,94338.47
2023-01-19T02:44:10.847Z,94341.09
2023-01-19T02:49:13.740Z,94311.88
2023-01-19T02:55:04.088Z,94334.94
2023-01-19T03:00:47.748Z,94346.25
2023-01-19T03:06:06.484Z,94360.97
2023-01-19T03:11:10.801Z,94329.97
2023-01-19T03:16:39.751Z,94356.31
2023-01-19T03:21:45.145Z,94342.84
2023-01-19T03:26:57.966Z,94347.31
2023-01-19T03:32:03.173Z,94329.22
2023-01-19T03:37:05.568Z,94342.84
2023-01-19T03:42:11.061Z,94346.81
2023-01-19T03:47:14.676Z,94353.16
2023-01-19T03:52:16.892Z,94347.63
2023-01-19T03:57:18.994Z,94347.63
2023-01-19T04:02:21.117Z,94350.00
2023-01-19T04:07:22.969Z,94341.63
2023-01-19T04:12:25.026Z,94332.44
2023-01-19T04:17:27.042Z,94325.88
2023-01-19T04:22:29.836Z,94357.69
2023-01-19T04:27:31.953Z,94384.25
2023-01-19T04:32:34.167Z,94369.03
2023-01-19T04:37:36.141Z,94365.13
2023-01-19T04:42:38.287Z,94371.16
2023-01-19T04:47:40.426Z,94351.97
2023-01-19T04:52:42.283Z,94354.09
2023-01-19T04:57:44.372Z,94353.00
2023-01-19T05:02:46.402Z,94378.25
2023-01-19T05:07:48.481Z,94380.63
2023-01-19T05:12:51.438Z,94399.06
2023-01-19T05:17:53.431Z,94402.50
2023-01-19T05:22:55.420Z,94403.03
2023-01-19T05:27:57.367Z,94354.38
2023-01-19T05:32:59.559Z,94395.66
2023-01-19T05:38:02.020Z,94403.81
2023-01-19T05:43:06.174Z,94391.19
2023-01-19T05:48:09.520Z,94402.75
2023-01-19T05:53:12.388Z,94390.13
2023-01-19T05:58:14.514Z,94417.78
2023-01-19T06:03:16.577Z,94414.88
2023-01-19T06:08:18.839Z,94406.44
2023-01-19T06:13:21.546Z,94417.50
2023-01-19T06:18:23.768Z,94409.63
2023-01-19T06:23:27.014Z,94438.81
2023-01-19T06:28:29.129Z,94422.50
2023-01-19T06:33:31.715Z,94458.31
2023-01-19T06:38:33.702Z,94438.53
2023-01-19T06:43:35.780Z,94459.34
2023-01-19T06:48:37.640Z,94458.25
2023-01-19T06:53:39.735Z,94458.25
2023-01-19T06:58:42.838Z,94442.72
2023-01-19T07:03:46.803Z,94449.28
2023-01-19T07:08:49.016Z,94436.41
2023-01-19T07:13:54.360Z,94455.09
2023-01-19T07:18:56.592Z,94452.47
2023-01-19T07:23:58.778Z,94448.19
2023-01-19T07:29:00.809Z,94469.78
2023-01-19T07:34:02.709Z,94480.56
2023-01-19T07:39:04.827Z,94467.13
2023-01-19T07:44:07.208Z,94462.66
2023-01-19T07:49:09.725Z,94500.06
2023-01-19T07:54:11.847Z,94491.88
2023-01-19T07:59:13.998Z,94492.69
2023-01-19T08:04:19.302Z,94493.44
2023-01-19T08:09:21.557Z,94485.03
2023-01-19T08:14:23.582Z,94473.22
2023-01-19T08:19:25.708Z,94498.28
2023-01-19T08:24:29.280Z,94500.66
2023-01-19T08:29:32.007Z,94500.13
2023-01-19T08:34:34.030Z,94512.50
2023-01-19T08:39:36.015Z,94483.81
2023-01-19T08:44:46.725Z,94490.66
2023-01-19T08:49:55.165Z,94475.38
2023-01-19T08:54:57.147Z,94511.97
2023-01-19T08:59:59.178Z,94518.75
2023-01-19T09:05:01.122Z,94485.81
2023-01-19T09:10:07.148Z,94477.38
2023-01-19T09:15:11.206Z,94482.31
2023-01-19T09:20:14.033Z,94500.13
2023-01-19T09:25:16.318Z,94513.69
2023-01-19T09:30:19.367Z,94512.50
2023-01-19T09:35:21.936Z,94511.28
2023-01-19T09:40:23.915Z,94495.59
2023-01-19T09:45:36.933Z,94509.44
2023-01-19T09:50:40.232Z,94498.16
2023-01-19T09:55:42.946Z,94496.69
2023-01-19T10:00:51.372Z,94496.56
2023-01-19T10:06:01.603Z,94499.81
2023-01-19T10:11:06.575Z,94470.75
2023-01-19T10:16:17.672Z,94499.88
2023-01-19T10:21:22.306Z,94499.97
2023-01-19T10:26:39.349Z,94496.81
2023-01-19T10:31:42.684Z,94492.09
2023-01-19T10:36:47.341Z,94498.22
2023-01-19T10:41:53.709Z,94490.97
2023-01-19T10:46:59.261Z,94492.00
2023-01-19T10:52:02.211Z,94487.66
2023-01-19T10:57:06.301Z,94461.25
2023-01-19T11:02:18.925Z,94437.78
2023-01-19T11:07:34.375Z,94447.69
2023-01-19T11:12:41.158Z,94444.72
2023-01-19T11:17:46.669Z,94441.47
2023-01-19T11:22:49.145Z,94486.66
2023-01-19T11:27:51.944Z,94455.66
2023-01-19T11:32:54.670Z,94437.69
2023-01-19T11:38:17.300Z,94440.94
2023-01-19T11:43:20.993Z,94428.06
2023-01-19T11:48:32.327Z,94408.38
2023-01-19T11:53:34.864Z,94401.38
2023-01-19T11:58:47.517Z,94378.31
2023-01-19T12:03:59.206Z,94395.66
2023-01-19T12:09:01.020Z,94395.97
2023-01-19T12:14:03.252Z,94360.69
2023-01-19T12:19:16.578Z,94338.84
2023-01-19T12:24:31.969Z,94356.28
2023-01-19T12:29:36.089Z,94323.91
2023-01-19T12:34:49.317Z,94348.75
2023-01-19T12:39:51.299Z,94314.00
2023-01-19T12:45:23.645Z,94330.19
2023-01-19T12:50:26.860Z,94332.66
2023-01-19T12:55:33.426Z,94291.22
2023-01-19T13:00:43.426Z,94271.47
2023-01-19T13:05:45.385Z,94295.06
2023-01-19T13:11:06.520Z,94286.59
2023-01-19T13:16:20.822Z,94286.31
2023-01-19T13:21:44.771Z,94277.00
2023-01-19T13:26:50.037Z,94253.47
2023-01-19T13:31:54.947Z,94247.09
2023-01-19T13:36:59.500Z,94257.78
2023-01-19T13:42:05.404Z,94245.28
2023-01-19T13:47:16.738Z,94251.66
2023-01-19T13:52:24.251Z,94227.94
2023-01-19T13:57:43.761Z,94245.28
2023-01-19T14:03:11.026Z,94187.44
2023-01-19T14:08:15.403Z,94196.56
2023-01-19T14:13:20.005Z,94200.53
2023-01-19T14:18:21.945Z,94195.31
2023-01-19T14:23:42.213Z,94202.09
2023-01-19T14:28:44.783Z,94192.03
2023-01-19T14:33:48.363Z,94184.09
2023-01-19T14:38:51.692Z,94197.44
2023-01-19T14:43:56.235Z,94207.91
2023-01-19T14:49:03.774Z,94192.34
2023-01-19T14:54:05.954Z,94192.41
2023-01-19T14:59:11.115Z,94190.31
2023-01-19T15:04:13.284Z,94179.38
2023-01-19T15:09:15.818Z,94169.19
2023-01-19T15:14:19.339Z,94129.38
2023-01-19T15:19:21.386Z,94146.81
2023-01-19T15:24:23.400Z,94115.50
2023-01-19T15:29:26.376Z,94115.84
2023-01-19T15:34:28.353Z,94122.75
2023-01-19T15:39:30.449Z,94109.84
2023-01-19T15:44:32.487Z,94100.16
2023-01-19T15:49:34.574Z,94124.59
2023-01-19T15:54:36.629Z,94127.91
2023-01-19T15:59:38.483Z,94110.84
2023-01-19T16:04:40.414Z,94102.19
2023-01-19T16:09:42.285Z,94083.03
2023-01-19T16:14:44.281Z,94100.91
2023-01-19T16:19:46.432Z,94064.34
2023-01-19T16:24:48.395Z,94078.44
2023-01-19T16:29:50.634Z,94049.78
2023-01-19T16:34:52.695Z,94069.34
2023-01-19T16:39:54.688Z,94066.22
2023-01-19T16:44:56.562Z,94050.53
2023-01-19T16:49:58.467Z,94047.44
2023-01-19T16:55:00.533Z,94060.03
2023-01-19T17:00:03.830Z,94075.28
2023-01-19T17:05:06.271Z,94056.59
2023-01-19T17:10:09.649Z,94073.88
2023-01-19T17:15:11.778Z,94029.53
2023-01-19T17:20:14.161Z,94064.81
2023-01-19T17:25:16.191Z,94059.66
2023-01-19T17:30:18.281Z,94042.94
2023-01-19T17:35:20.339Z,94052.34
2023-01-19T17:40:22.586Z,94036.56
2023-01-19T17:45:24.489Z,94011.59
2023-01-19T17:50:26.386Z,94027.47
2023-01-19T17:55:28.383Z,93993.97
2023-01-19T18:00:30.302Z,94007.28
2023-01-19T18:05:32.266Z,94023.94
2023-01-19T18:10:34.312Z,94015.53
2023-01-19T18:15:36.205Z,93997.50
2023-01-19T18:20:40.045Z,93976.91
2023-01-19T18:25:43.371Z,93981.03
2023-01-19T18:30:45.646Z,93987.97
2023-01-19T18:35:47.913Z,93999.84
2023-01-19T18:41:42.427Z,94020.72
2023-01-19T19:54:13.614Z,93876.19
2023-01-19T19:59:15.568Z,93896.44
2023-01-19T20:04:20.419Z,93891.78
2023-01-19T20:09:22.611Z,93867.22
2023-01-19T20:14:24.737Z,93857.44
2023-01-19T20:19:26.705Z,93854.34
2023-01-19T20:24:28.802Z,93865.28
2023-01-19T20:29:30.825Z,93827.00
2023-01-19T20:34:33.838Z,93841.16
2023-01-19T20:39:37.251Z,93819.09
2023-01-19T20:44:40.100Z,93830.47
2023-01-19T20:49:42.785Z,93840.88
2023-01-19T20:54:44.717Z,93864.50
2023-01-19T20:59:47.318Z,93841.63
2023-01-19T21:04:49.373Z,93839.94
2023-01-19T21:09:51.261Z,93865.81
2023-01-19T21:14:53.358Z,93852.03
2023-01-19T21:19:55.326Z,93859.69
2023-01-19T21:24:57.416Z,93856.25
2023-01-19T21:30:01.000Z,93863.69
2023-01-19T21:35:02.940Z,93845.41
2023-01-19T21:40:05.483Z,93874.81
2023-01-19T21:45:08.349Z,93828.56
2023-01-19T21:50:11.008Z,93880.19
2023-01-19T21:55:13.196Z,93862.50
2023-01-19T22:00:15.610Z,93868.81
2023-01-19T22:05:17.790Z,93865.50
2023-01-19T22:10:19.830Z,93853.59
2023-01-19T22:15:21.843Z,93895.00
2023-01-19T22:20:23.826Z,93883.16
2023-01-19T22:25:28.077Z,93880.84
2023-01-19T22:30:30.323Z,93832.03
2023-01-19T22:35:32.427Z,93877.97
2023-01-19T22:40:49.513Z,93871.25
2023-01-19T22:45:56.187Z,93914.81
2023-01-19T22:50:58.214Z,93905.50
2023-01-19T22:56:00.412Z,93899.75
2023-01-19T23:01:09.491Z,93923.19
2023-01-19T23:06:14.007Z,93926.94
2023-01-19T23:11:23.328Z,93949.28
2023-01-19T23:16:25.456Z,93910.06
2023-01-19T23:21:29.220Z,93940.56
2023-01-19T23:26:38.098Z,93930.41
2023-01-19T23:31:44.498Z,93919.66
2023-01-19T23:36:46.537Z,93942.94
2023-01-19T23:41:49.541Z,93937.75
2023-01-19T23:46:51.556Z,93939.78
2023-01-19T23:51:53.587Z,93909.00
2023-01-19T23:56:55.658Z,93936.22
